createdAt,value
2022-09-07T00:00:42.085Z,18.20
2022-09-07T00:03:09.478Z,18.20
2022-09-07T00:05:46.292Z,18.20
2022-09-07T00:08:14.303Z,18.20
2022-09-07T00:10:41.656Z,18.20
2022-09-07T00:13:09.014Z,18.20
2022-09-07T00:15:40.314Z,18.30
2022-09-07T00:18:07.632Z,18.30
2022-09-07T00:20:34.663Z,18.30
2022-09-07T00:23:01.406Z,18.30
2022-09-07T00:25:30.808Z,18.30
2022-09-07T00:27:59.173Z,18.30
2022-09-07T00:30:25.951Z,18.20
2022-09-07T00:32:52.709Z,18.20
2022-09-07T00:35:19.500Z,18.30
2022-09-07T00:37:46.267Z,18.20
2022-09-07T00:40:13.032Z,18.20
2022-09-07T00:42:39.854Z,18.20
2022-09-07T00:45:33.086Z,18.10
2022-09-07T00:48:08.301Z,18.10
2022-09-07T00:50:43.058Z,18.10
2022-09-07T00:53:23.436Z,18.00
2022-09-07T00:55:52.125Z,18.00
2022-09-07T00:58:21.766Z,18.00
2022-09-07T01:00:50.459Z,17.90
2022-09-07T01:03:23.001Z,18.00
2022-09-07T01:06:11.844Z,17.90
2022-09-07T01:08:38.859Z,17.90
2022-09-07T01:11:06.267Z,17.80
2022-09-07T01:13:33.041Z,17.80
2022-09-07T01:16:05.797Z,17.20
2022-09-07T01:18:38.326Z,17.80
2022-09-07T01:21:22.838Z,17.70
2022-09-07T01:24:04.537Z,17.80
2022-09-07T01:26:49.319Z,17.70
2022-09-07T01:29:49.045Z,17.70
2022-09-07T01:32:36.866Z,17.70
2022-09-07T01:35:07.299Z,17.80
2022-09-07T01:37:46.869Z,17.80
2022-09-07T01:40:30.602Z,17.70
2022-09-07T01:43:06.843Z,17.80
2022-09-07T01:45:36.176Z,17.80
2022-09-07T01:48:07.220Z,17.80
2022-09-07T01:50:47.747Z,17.80
2022-09-07T01:53:21.280Z,17.90
2022-09-07T01:56:06.929Z,17.80
2022-09-07T01:58:43.217Z,17.80
2022-09-07T02:01:15.452Z,17.80
2022-09-07T02:03:47.210Z,17.80
2022-09-07T02:06:31.267Z,17.80
2022-09-07T02:09:22.835Z,17.80
2022-09-07T02:11:50.336Z,17.70
2022-09-07T02:14:23.163Z,17.70
2022-09-07T02:17:12.194Z,17.70
2022-09-07T02:19:45.897Z,17.60
2022-09-07T02:22:16.650Z,17.60
2022-09-07T02:24:52.595Z,17.60
2022-09-07T02:27:25.390Z,17.60
2022-09-07T02:29:52.412Z,17.50
2022-09-07T02:32:19.239Z,17.50
2022-09-07T02:34:46.347Z,17.40
2022-09-07T02:37:14.832Z,17.40
2022-09-07T02:39:41.667Z,17.40
2022-09-07T02:42:09.410Z,17.30
2022-09-07T02:44:38.871Z,17.30
2022-09-07T02:47:36.156Z,17.30
2022-09-07T02:50:20.877Z,17.20
2022-09-07T02:53:12.411Z,17.20
2022-09-07T02:55:58.719Z,17.20
2022-09-07T02:59:04.449Z,17.20
2022-09-07T03:02:02.160Z,17.10
2022-09-07T03:04:56.739Z,17.10
2022-09-07T03:07:29.945Z,17.10
2022-09-07T03:09:57.897Z,17.10
2022-09-07T03:12:24.845Z,17.10
2022-09-07T03:14:51.582Z,17.10
2022-09-07T03:17:18.471Z,17.10
2022-09-07T03:19:45.263Z,17.10
2022-09-07T03:22:12.022Z,17.10
2022-09-07T03:24:38.715Z,17.10
2022-09-07T03:27:05.555Z,17.10
2022-09-07T03:29:32.303Z,17.10
2022-09-07T03:31:59.103Z,17.00
2022-09-07T03:34:25.912Z,17.00
2022-09-07T03:36:52.774Z,17.10
2022-09-07T03:39:22.557Z,17.00
2022-09-07T03:41:49.863Z,17.00
2022-09-07T03:44:16.615Z,17.00
2022-09-07T03:46:44.200Z,17.00
2022-09-07T03:49:11.393Z,16.90
2022-09-07T03:51:38.223Z,17.00
2022-09-07T03:54:05.083Z,16.90
2022-09-07T03:56:31.908Z,16.90
2022-09-07T03:58:58.651Z,16.90
2022-09-07T04:01:27.140Z,16.90
2022-09-07T04:04:02.203Z,16.90
2022-09-07T04:06:30.008Z,16.90
2022-09-07T04:08:56.764Z,16.90
2022-09-07T04:11:23.728Z,16.90
2022-09-07T04:13:50.443Z,16.90
2022-09-07T04:16:20.534Z,17.00
2022-09-07T04:18:47.601Z,17.00
2022-09-07T04:23:42.618Z,16.90
2022-09-07T04:26:17.197Z,16.90
2022-09-07T04:28:44.758Z,16.90
2022-09-07T04:31:12.504Z,16.80
2022-09-07T04:33:39.334Z,16.80
2022-09-07T04:36:06.364Z,16.80
2022-09-07T04:41:09.805Z,16.70
2022-09-07T04:43:37.974Z,16.70
2022-09-07T04:46:25.820Z,16.70
2022-09-07T04:48:56.073Z,16.80
2022-09-07T04:51:25.039Z,16.80
2022-09-07T04:53:53.784Z,16.80
2022-09-07T04:56:21.794Z,16.80
2022-09-07T04:58:48.978Z,16.80
2022-09-07T05:01:18.243Z,16.80
2022-09-07T05:03:45.798Z,16.80
2022-09-07T05:06:12.965Z,16.80
2022-09-07T05:08:41.886Z,16.80
2022-09-07T05:11:09.581Z,16.80
2022-09-07T05:13:36.877Z,16.80
2022-09-07T05:16:10.955Z,16.80
2022-09-07T05:18:38.131Z,16.80
2022-09-07T05:21:19.378Z,16.80
2022-09-07T05:23:51.105Z,16.80
2022-09-07T05:26:18.847Z,16.80
2022-09-07T05:28:46.750Z,16.80
2022-09-07T05:36:40.774Z,17.00
2022-09-07T05:39:09.063Z,17.00
2022-09-07T05:41:36.096Z,17.00
2022-09-07T05:46:52.233Z,17.00
2022-09-07T05:51:46.140Z,17.10
2022-09-07T05:59:07.348Z,17.40
2022-09-07T06:08:57.693Z,17.60
2022-09-07T06:11:25.788Z,17.60
2022-09-07T06:16:20.568Z,17.80
2022-09-07T06:18:49.495Z,17.80
2022-09-07T06:21:19.694Z,17.80
2022-09-07T06:23:47.344Z,17.80
2022-09-07T06:26:16.278Z,17.80
2022-09-07T06:28:46.768Z,17.90
2022-09-07T06:31:18.974Z,18.00
2022-09-07T06:33:47.660Z,18.20
2022-09-07T06:36:20.035Z,18.50
2022-09-07T06:38:47.741Z,18.80
2022-09-07T06:51:45.542Z,19.30
2022-09-07T06:56:59.536Z,19.40
2022-09-07T07:01:53.583Z,19.40
2022-09-07T07:06:47.526Z,19.30
2022-09-07T07:09:14.483Z,19.40
2022-09-07T07:11:43.542Z,19.30
2022-09-07T07:14:21.085Z,19.40
2022-09-07T07:16:47.910Z,19.50
2022-09-07T07:19:14.809Z,19.50
2022-09-07T07:22:07.897Z,19.60
2022-09-07T07:24:29.173Z,19.60
2022-09-07T07:26:56.040Z,19.70
2022-09-07T07:29:24.033Z,19.70
2022-09-07T07:34:21.039Z,19.80
2022-09-07T07:42:03.555Z,20.10
2022-09-07T07:46:59.508Z,20.60
2022-09-07T07:54:43.815Z,21.20
2022-09-07T07:59:38.502Z,21.80
2022-09-07T08:02:06.802Z,21.90
2022-09-07T08:04:34.599Z,21.90
2022-09-07T08:07:09.210Z,22.00
2022-09-07T08:09:40.753Z,21.90
2022-09-07T08:12:08.110Z,21.70
2022-09-07T08:14:40.537Z,21.70
2022-09-07T08:17:08.707Z,21.60
2022-09-07T08:22:03.830Z,21.50
2022-09-07T08:24:31.744Z,21.50
2022-09-07T08:26:58.522Z,21.60
2022-09-07T08:29:25.213Z,21.60
2022-09-07T08:34:19.102Z,21.50
2022-09-07T08:36:45.777Z,21.60
2022-09-07T08:39:12.489Z,21.50
2022-09-07T08:41:41.845Z,21.30
2022-09-07T08:44:32.527Z,21.30
2022-09-07T08:47:21.549Z,21.50
2022-09-07T08:50:03.545Z,21.40
2022-09-07T08:52:41.566Z,21.70
2022-09-07T08:55:17.113Z,22.00
2022-09-07T08:58:27.119Z,22.40
2022-09-07T09:07:01.993Z,23.30
2022-09-07T09:09:40.101Z,23.30
2022-09-07T09:12:23.576Z,23.60
2022-09-07T09:15:17.491Z,23.50
2022-09-07T09:17:53.354Z,23.30
2022-09-07T09:20:24.294Z,23.40
2022-09-07T09:22:57.576Z,23.30
2022-09-07T09:25:33.375Z,23.40
2022-09-07T09:28:00.777Z,23.50
2022-09-07T09:30:28.195Z,23.60
2022-09-07T09:33:25.935Z,23.90
2022-09-07T09:35:58.776Z,24.30
2022-09-07T09:38:39.433Z,24.20
2022-09-07T09:41:12.141Z,24.20
2022-09-07T09:43:55.753Z,24.10
2022-09-07T09:46:33.666Z,24.00
2022-09-07T09:49:14.513Z,23.50
2022-09-07T09:54:44.254Z,23.20
2022-09-07T09:57:18.286Z,23.30
2022-09-07T10:00:03.870Z,23.10
2022-09-07T10:05:26.565Z,23.00
2022-09-07T10:07:53.704Z,23.00
2022-09-07T10:10:20.712Z,22.90
2022-09-07T10:12:47.543Z,23.20
2022-09-07T10:15:40.420Z,23.60
2022-09-07T10:18:16.251Z,23.90
2022-09-07T10:20:42.982Z,23.80
2022-09-07T10:23:21.575Z,23.90
2022-09-07T10:28:21.425Z,23.90
2022-09-07T10:33:26.631Z,24.10
2022-09-07T10:36:05.487Z,24.10
2022-09-07T10:38:40.928Z,24.30
2022-09-07T10:41:11.097Z,24.30
2022-09-07T10:43:45.443Z,24.30
2022-09-07T10:52:23.172Z,24.20
2022-09-07T10:55:00.932Z,23.90
2022-09-07T10:57:55.180Z,23.80
2022-09-07T11:00:22.605Z,23.80
2022-09-07T11:03:26.919Z,23.80
2022-09-07T11:09:14.988Z,24.00
2022-09-07T11:14:32.786Z,24.50
2022-09-07T11:17:03.597Z,24.70
2022-09-07T11:19:57.333Z,24.60
2022-09-07T11:22:35.809Z,24.70
2022-09-07T11:25:37.535Z,24.90
2022-09-07T11:28:14.531Z,25.20
2022-09-07T11:30:47.144Z,25.20
2022-09-07T11:33:26.486Z,24.80
2022-09-07T11:36:08.657Z,24.60
2022-09-07T11:38:44.301Z,24.50
2022-09-07T11:41:51.355Z,24.50
2022-09-07T11:44:24.738Z,24.60
2022-09-07T11:46:55.753Z,25.00
2022-09-07T11:49:25.754Z,25.40
2022-09-07T11:52:08.654Z,25.70
2022-09-07T11:54:44.372Z,25.90
2022-09-07T11:59:44.021Z,25.90
2022-09-07T12:02:58.163Z,26.00
2022-09-07T12:05:56.194Z,25.80
2022-09-07T12:08:48.067Z,25.70
2022-09-07T12:11:35.654Z,25.50
2022-09-07T12:14:21.558Z,25.50
2022-09-07T12:17:06.595Z,25.30
2022-09-07T12:19:33.320Z,25.20
2022-09-07T12:22:00.965Z,25.20
2022-09-07T12:24:43.399Z,25.20
2022-09-07T12:27:22.220Z,25.40
2022-09-07T12:29:50.342Z,25.30
2022-09-07T12:32:57.095Z,25.30
2022-09-07T12:35:30.931Z,25.20
2022-09-07T12:40:30.530Z,25.30
2022-09-07T12:43:12.490Z,25.40
2022-09-07T12:45:39.124Z,25.40
2022-09-07T12:48:15.192Z,25.40
2022-09-07T12:51:02.836Z,25.30
2022-09-07T12:53:35.890Z,25.40
2022-09-07T12:56:17.780Z,25.60
2022-09-07T12:59:22.051Z,25.50
2022-09-07T13:01:56.571Z,25.70
2022-09-07T13:04:46.233Z,25.50
2022-09-07T13:07:25.159Z,25.50
2022-09-07T13:10:00.248Z,25.50
2022-09-07T13:12:55.254Z,25.40
2022-09-07T13:15:44.353Z,25.30
2022-09-07T13:18:31.595Z,25.40
2022-09-07T13:21:07.381Z,25.30
2022-09-07T13:23:43.040Z,25.40
2022-09-07T13:26:34.492Z,25.60
2022-09-07T13:29:04.178Z,25.70
2022-09-07T13:31:42.922Z,26.00
2022-09-07T13:34:34.460Z,26.10
2022-09-07T13:37:03.161Z,26.00
2022-09-07T13:39:37.645Z,26.30
2022-09-07T13:42:04.570Z,26.60
2022-09-07T13:44:33.784Z,26.70
2022-09-07T13:47:23.823Z,26.70
2022-09-07T13:50:09.229Z,26.60
2022-09-07T13:53:02.552Z,26.40
2022-09-07T13:55:52.360Z,26.30
2022-09-07T13:58:50.435Z,26.20
2022-09-07T14:01:21.530Z,26.40
2022-09-07T14:03:59.743Z,26.50
2022-09-07T14:06:30.058Z,26.50
2022-09-07T14:09:03.468Z,26.40
2022-09-07T14:11:38.992Z,26.20
2022-09-07T14:14:18.372Z,26.10
2022-09-07T14:16:52.845Z,26.00
2022-09-07T14:19:26.081Z,26.00
2022-09-07T14:22:22.690Z,26.20
2022-09-07T14:25:01.774Z,26.40
2022-09-07T14:27:33.175Z,26.60
2022-09-07T14:30:23.755Z,26.60
2022-09-07T14:32:53.328Z,26.60
2022-09-07T14:35:26.294Z,26.50
2022-09-07T14:37:53.676Z,26.60
2022-09-07T14:40:25.524Z,26.40
2022-09-07T14:42:55.231Z,26.40
2022-09-07T14:45:26.369Z,26.40
2022-09-07T14:47:55.011Z,26.30
2022-09-07T14:50:30.915Z,26.30
2022-09-07T14:55:47.398Z,26.10
2022-09-07T14:58:14.089Z,25.80
2022-09-07T15:04:01.881Z,25.90
2022-09-07T15:09:37.862Z,26.20
2022-09-07T15:12:29.762Z,26.40
2022-09-07T15:15:11.564Z,26.70
2022-09-07T15:17:45.532Z,26.80
2022-09-07T15:20:35.915Z,26.70
2022-09-07T15:23:19.560Z,26.50
2022-09-07T15:25:53.701Z,26.60
2022-09-07T15:34:10.112Z,26.40
2022-09-07T15:36:38.992Z,26.40
2022-09-07T15:41:34.859Z,26.20
2022-09-07T15:44:02.006Z,26.30
2022-09-07T15:46:28.757Z,26.40
2022-09-07T15:48:56.142Z,26.50
2022-09-07T15:54:13.153Z,26.50
2022-09-07T15:56:42.388Z,26.30
2022-09-07T15:59:10.770Z,26.20
2022-09-07T16:04:24.042Z,25.90
2022-09-07T16:06:51.010Z,25.70
2022-09-07T16:11:50.207Z,25.40
2022-09-07T16:14:17.557Z,25.40
2022-09-07T16:19:34.639Z,25.30
2022-09-07T16:22:02.060Z,26.60
2022-09-07T16:24:28.870Z,25.10
2022-09-07T16:26:55.659Z,25.20
2022-09-07T16:29:22.332Z,25.10
2022-09-07T16:34:35.583Z,25.10
2022-09-07T16:37:02.655Z,25.10
2022-09-07T16:39:29.361Z,25.10
2022-09-07T16:41:56.202Z,25.20
2022-09-07T16:44:23.191Z,25.10
2022-09-07T16:46:50.602Z,25.10
2022-09-07T16:49:17.697Z,25.20
2022-09-07T16:51:45.684Z,25.20
2022-09-07T16:54:14.221Z,25.30
2022-09-07T16:56:40.848Z,25.30
2022-09-07T16:59:11.400Z,25.30
2022-09-07T17:01:38.292Z,25.40
2022-09-07T17:04:10.606Z,25.30
2022-09-07T17:06:38.646Z,25.20
2022-09-07T17:09:05.388Z,25.20
2022-09-07T17:11:33.879Z,25.10
2022-09-07T17:14:01.201Z,25.20
2022-09-07T17:16:33.686Z,25.20
2022-09-07T17:21:53.617Z,25.10
2022-09-07T17:24:20.638Z,25.00
2022-09-07T17:26:47.547Z,24.90
2022-09-07T17:29:14.502Z,24.80
2022-09-07T17:34:31.564Z,24.40
2022-09-07T17:37:00.622Z,24.20
2022-09-07T17:39:27.819Z,24.20
2022-09-07T17:41:54.701Z,24.10
2022-09-07T17:44:23.242Z,23.90
2022-09-07T17:46:50.535Z,23.90
2022-09-07T17:49:17.645Z,23.80
2022-09-07T17:51:44.978Z,23.70
2022-09-07T17:54:14.926Z,23.70
2022-09-07T17:56:42.582Z,23.60
2022-09-07T18:01:56.561Z,23.40
2022-09-07T18:04:23.785Z,23.20
2022-09-07T18:06:51.073Z,23.10
2022-09-07T18:09:19.477Z,23.00
2022-09-07T18:11:47.642Z,22.90
2022-09-07T18:14:15.421Z,22.80
2022-09-07T18:16:43.838Z,22.70
2022-09-07T18:19:11.293Z,22.60
2022-09-07T18:21:41.029Z,22.40
2022-09-07T18:24:16.493Z,22.30
2022-09-07T18:26:43.341Z,22.30
2022-09-07T18:29:27.209Z,22.20
2022-09-07T18:31:55.499Z,22.10
2022-09-07T18:34:22.519Z,22.00
2022-09-07T18:36:49.279Z,21.90
2022-09-07T18:39:15.982Z,21.70
2022-09-07T18:41:42.896Z,21.60
2022-09-07T18:46:56.317Z,21.40
2022-09-07T18:49:23.533Z,21.30
2022-09-07T18:54:38.833Z,21.20
2022-09-07T18:57:06.716Z,21.20
2022-09-07T18:59:33.826Z,21.20
2022-09-07T19:02:04.384Z,21.20
2022-09-07T19:07:20.644Z,21.00
2022-09-07T19:09:48.230Z,20.80
2022-09-07T19:12:16.658Z,20.80
2022-09-07T19:14:43.326Z,20.80
2022-09-07T19:17:12.776Z,20.90
2022-09-07T19:19:40.621Z,20.80
2022-09-07T19:22:07.576Z,20.70
2022-09-07T19:24:34.283Z,20.80
2022-09-07T19:29:29.066Z,20.70
2022-09-07T19:32:04.954Z,20.70
2022-09-07T19:34:36.594Z,20.70
2022-09-07T19:37:04.897Z,20.70
2022-09-07T19:39:31.629Z,20.70
2022-09-07T19:41:58.484Z,20.70
2022-09-07T19:51:46.436Z,20.60
2022-09-07T19:56:42.634Z,20.60
2022-09-07T19:59:10.103Z,20.50
2022-09-07T20:01:38.715Z,20.50
2022-09-07T20:04:13.827Z,20.50
2022-09-07T20:11:37.207Z,20.30
2022-09-07T20:14:04.147Z,20.30
2022-09-07T20:18:59.767Z,20.20
2022-09-07T20:21:26.991Z,20.20
2022-09-07T20:26:22.426Z,19.90
2022-09-07T20:29:11.023Z,19.80
2022-09-07T20:34:11.473Z,19.80
2022-09-07T20:36:38.201Z,19.70
2022-09-07T20:41:33.987Z,19.70
2022-09-07T20:44:02.792Z,19.60
2022-09-07T20:46:30.415Z,19.50
2022-09-07T20:48:57.552Z,19.40
2022-09-07T20:51:24.427Z,19.40
2022-09-07T20:56:20.604Z,19.30
2022-09-07T20:58:48.486Z,19.40
2022-09-07T21:01:17.972Z,18.10
2022-09-07T21:03:50.420Z,19.30
2022-09-07T21:06:18.347Z,19.30
2022-09-07T21:08:46.723Z,19.20
2022-09-07T21:11:18.183Z,19.20
2022-09-07T21:13:44.931Z,19.10
2022-09-07T21:16:14.439Z,19.10
2022-09-07T21:18:43.323Z,19.10
2022-09-07T21:21:19.685Z,19.10
2022-09-07T21:23:47.187Z,19.00
2022-09-07T21:26:13.999Z,19.10
2022-09-07T21:28:40.737Z,19.00
2022-09-07T21:31:09.047Z,18.90
2022-09-07T21:33:37.593Z,18.80
2022-09-07T21:36:12.701Z,18.90
2022-09-07T21:38:41.205Z,18.80
2022-09-07T21:41:08.778Z,18.80
2022-09-07T21:43:35.885Z,18.80
2022-09-07T21:46:13.961Z,18.80
2022-09-07T21:53:35.089Z,18.80
2022-09-07T21:56:07.472Z,18.70
2022-09-07T21:58:34.341Z,18.70
2022-09-07T22:01:12.904Z,18.70
2022-09-07T22:03:40.485Z,18.70
2022-09-07T22:06:08.311Z,18.70
2022-09-07T22:08:36.602Z,18.80
2022-09-07T22:11:05.936Z,18.90
2022-09-07T22:13:33.296Z,18.90
2022-09-07T22:16:00.456Z,19.00
2022-09-07T22:21:05.759Z,19.00
2022-09-07T22:23:34.407Z,19.00
2022-09-07T22:28:32.018Z,19.00
2022-09-07T22:31:14.990Z,19.00
2022-09-07T22:36:13.817Z,18.90
2022-09-07T22:38:41.718Z,18.90
2022-09-07T22:41:20.207Z,18.90
2022-09-07T22:43:48.101Z,19.00
2022-09-07T22:46:14.996Z,18.90
2022-09-07T22:48:41.940Z,18.90
2022-09-07T22:51:09.521Z,18.90
2022-09-07T22:53:38.427Z,18.90
2022-09-07T22:56:12.307Z,18.90
2022-09-07T22:58:39.569Z,18.90
2022-09-07T23:01:07.061Z,19.00
2022-09-07T23:03:35.312Z,19.00
2022-09-07T23:06:02.476Z,19.00
2022-09-07T23:08:29.672Z,19.00
2022-09-07T23:11:01.267Z,19.00
2022-09-07T23:18:25.308Z,18.80
2022-09-07T23:20:52.040Z,18.80
2022-09-07T23:25:46.031Z,18.70
2022-09-07T23:30:40.628Z,18.60
2022-09-07T23:35:34.777Z,18.50
2022-09-07T23:42:58.088Z,18.40
2022-09-07T23:45:25.160Z,18.40
